createdAt,value
2022-11-12T00:00:04.122Z,100989.38
2022-11-12T00:03:26.332Z,100991.44
2022-11-12T00:06:48.281Z,100987.13
2022-11-12T00:10:12.132Z,100986.13
2022-11-12T00:13:35.605Z,100982.34
2022-11-12T00:16:57.811Z,100992.31
2022-11-12T00:20:20.022Z,100986.38
2022-11-12T00:23:42.133Z,100988.28
2022-11-12T00:27:04.681Z,100982.19
2022-11-12T00:30:28.332Z,100981.03
2022-11-12T00:33:50.842Z,100988.03
2022-11-12T00:37:13.323Z,100992.38
2022-11-12T00:40:35.782Z,100983.56
2022-11-12T00:43:58.272Z,100983.03
2022-11-12T00:47:22.124Z,100978.94
2022-11-12T00:50:44.678Z,100971.00
2022-11-12T00:54:07.113Z,100967.81
2022-11-12T00:57:29.610Z,100967.88
2022-11-12T01:00:51.926Z,100961.53
2022-11-12T01:04:15.734Z,100965.50
2022-11-12T01:07:38.192Z,100963.47
2022-11-12T01:11:08.155Z,100958.84
2022-11-12T01:14:30.143Z,100958.78
2022-11-12T01:17:52.226Z,100958.16
2022-11-12T01:21:16.503Z,100959.13
2022-11-12T01:24:38.693Z,100949.84
2022-11-12T01:28:00.682Z,100950.41
2022-11-12T01:31:25.385Z,100948.31
2022-11-12T01:34:47.881Z,100945.75
2022-11-12T01:38:11.687Z,100940.59
2022-11-12T01:41:36.012Z,100934.28
2022-11-12T01:44:58.273Z,100942.22
2022-11-12T01:48:28.275Z,100939.31
2022-11-12T01:51:53.503Z,100939.50
2022-11-12T01:55:21.481Z,100946.81
2022-11-12T01:58:45.610Z,100938.41
2022-11-12T02:02:07.832Z,100944.09
2022-11-12T02:05:32.642Z,100934.69
2022-11-12T02:08:56.132Z,100941.13
2022-11-12T02:12:33.763Z,100944.91
2022-11-12T02:15:56.744Z,100946.56
2022-11-12T02:19:21.491Z,100942.84
2022-11-12T02:22:45.282Z,100943.00
2022-11-12T02:26:07.601Z,100941.78
2022-11-12T02:29:29.715Z,100946.91
2022-11-12T02:32:51.891Z,100950.03
2022-11-12T02:36:14.251Z,100948.16
2022-11-12T02:39:39.853Z,100949.97
2022-11-12T02:43:02.023Z,100944.00
2022-11-12T02:46:24.541Z,100948.72
2022-11-12T02:49:46.840Z,100946.91
2022-11-12T02:53:09.160Z,100946.19
2022-11-12T02:56:32.573Z,100942.59
2022-11-12T02:59:55.141Z,100942.59
2022-11-12T03:03:17.909Z,100936.66
2022-11-12T03:06:39.979Z,100955.22
2022-11-12T03:10:08.813Z,100956.44
2022-11-12T03:13:35.317Z,100951.44
2022-11-12T03:16:57.741Z,100950.34
2022-11-12T03:20:20.640Z,100959.44
2022-11-12T03:23:42.761Z,100944.84
2022-11-12T03:27:04.950Z,100943.31
2022-11-12T03:30:30.911Z,100944.84
2022-11-12T03:33:58.010Z,100950.53
2022-11-12T03:37:20.280Z,100948.72
2022-11-12T03:40:42.611Z,100949.75
2022-11-12T03:44:04.763Z,100954.47
2022-11-12T03:47:28.171Z,100954.44
2022-11-12T03:50:50.861Z,100957.69
2022-11-12T03:54:13.201Z,100954.50
2022-11-12T03:57:35.495Z,100951.94
2022-11-12T04:00:57.704Z,100952.34
2022-11-12T04:04:21.421Z,100957.66
2022-11-12T04:08:01.087Z,100955.03
2022-11-12T04:11:23.386Z,100942.78
2022-11-12T04:14:45.432Z,100947.81
2022-11-12T04:18:25.500Z,100951.75
2022-11-12T04:21:58.151Z,100963.72
2022-11-12T04:25:38.212Z,100958.47
2022-11-12T04:29:18.073Z,100962.69
2022-11-12T04:32:43.012Z,100953.22
2022-11-12T04:36:05.434Z,100960.63
2022-11-12T04:39:29.152Z,100958.53
2022-11-12T04:43:08.774Z,100955.13
2022-11-12T04:46:31.735Z,100962.66
2022-11-12T04:49:53.903Z,100962.63
2022-11-12T04:53:16.702Z,100960.19
2022-11-12T04:56:40.445Z,100966.72
2022-11-12T05:00:02.854Z,100966.13
2022-11-12T05:03:25.041Z,100981.94
2022-11-12T05:06:53.405Z,100983.78
2022-11-12T05:10:15.761Z,100984.97
2022-11-12T05:13:39.150Z,100980.69
2022-11-12T05:17:01.361Z,100982.41
2022-11-12T05:20:23.195Z,100986.56
2022-11-12T05:23:45.382Z,100990.44
2022-11-12T05:27:11.404Z,100995.00
2022-11-12T05:30:34.931Z,101002.25
2022-11-12T05:33:57.244Z,101004.88
2022-11-12T05:37:19.508Z,101014.75
2022-11-12T05:40:46.371Z,101022.38
2022-11-12T05:44:08.619Z,101028.44
2022-11-12T05:47:32.471Z,101036.06
2022-11-12T05:54:37.191Z,101044.88
2022-11-12T05:57:59.611Z,101054.38
2022-11-12T06:01:22.403Z,101061.28
2022-11-12T06:04:46.201Z,101061.88
2022-11-12T06:08:08.484Z,101071.88
2022-11-12T06:11:30.742Z,101067.84
2022-11-12T06:14:52.691Z,101069.63
2022-11-12T06:18:15.238Z,101079.88
2022-11-12T06:21:38.667Z,101092.00
2022-11-12T06:25:00.863Z,101098.78
2022-11-12T06:28:23.516Z,101103.16
2022-11-12T06:31:45.711Z,101103.47
2022-11-12T06:35:09.072Z,101102.31
2022-11-12T06:38:33.590Z,101109.59
2022-11-12T06:41:55.983Z,101104.41
2022-11-12T06:45:18.421Z,101113.25
2022-11-12T06:48:40.830Z,101119.13
2022-11-12T06:52:03.062Z,101120.81
2022-11-12T06:55:26.791Z,101119.47
2022-11-12T06:58:48.851Z,101109.78
2022-11-12T07:02:13.961Z,101107.06
2022-11-12T07:05:38.616Z,101107.06
2022-11-12T07:09:01.023Z,101114.19
2022-11-12T07:12:24.812Z,101115.13
2022-11-12T07:15:47.050Z,101119.13
2022-11-12T07:19:09.282Z,101117.34
2022-11-12T07:22:31.651Z,101118.72
2022-11-12T07:25:59.017Z,101119.09
2022-11-12T07:29:42.595Z,101120.84
2022-11-12T07:33:05.003Z,101127.16
2022-11-12T07:36:27.692Z,101136.06
2022-11-12T07:39:50.811Z,101128.03
2022-11-12T07:43:13.495Z,101128.94
2022-11-12T07:46:37.952Z,101131.91
2022-11-12T07:50:00.533Z,101139.28
2022-11-12T07:53:22.991Z,101127.09
2022-11-12T07:56:45.451Z,101119.16
2022-11-12T08:00:09.462Z,101127.03
2022-11-12T08:03:33.221Z,101120.38
2022-11-12T08:06:55.945Z,101121.00
2022-11-12T08:10:18.452Z,101114.50
2022-11-12T08:13:40.901Z,101122.97
2022-11-12T08:17:03.141Z,101130.94
2022-11-12T08:20:27.302Z,101127.03
2022-11-12T08:23:49.519Z,101125.13
2022-11-12T08:27:11.966Z,101129.84
2022-11-12T08:30:34.853Z,101138.06
2022-11-12T08:33:57.103Z,101147.84
2022-11-12T08:37:20.982Z,101152.34
2022-11-12T08:40:43.413Z,101157.41
2022-11-12T08:44:08.758Z,101159.31
2022-11-12T08:47:31.222Z,101158.03
2022-11-12T08:50:54.133Z,101165.50
2022-11-12T08:54:18.002Z,101162.69
2022-11-12T08:57:44.732Z,101165.22
2022-11-12T09:01:08.667Z,101167.72
2022-11-12T09:04:31.843Z,101151.56
2022-11-12T09:07:59.163Z,101158.53
2022-11-12T09:11:23.011Z,101152.34
2022-11-12T09:14:45.325Z,101141.16
2022-11-12T09:18:10.224Z,101147.94
2022-11-12T09:21:32.503Z,101146.22
2022-11-12T09:24:54.652Z,101144.22
2022-11-12T09:28:20.295Z,101144.53
2022-11-12T09:31:42.274Z,101143.00
2022-11-12T09:35:05.264Z,101142.09
2022-11-12T09:38:27.564Z,101138.84
2022-11-12T09:41:49.866Z,101141.94
2022-11-12T09:45:22.568Z,101143.19
2022-11-12T09:48:50.063Z,101126.75
2022-11-12T09:52:18.422Z,101129.66
2022-11-12T09:55:44.593Z,101130.47
2022-11-12T09:59:13.740Z,101132.41
2022-11-12T10:02:43.248Z,101136.47
2022-11-12T10:06:13.654Z,101144.63
2022-11-12T10:09:48.640Z,101139.66
2022-11-12T10:13:30.452Z,101127.13
2022-11-12T10:17:02.893Z,101125.25
2022-11-12T10:20:38.780Z,101132.66
2022-11-12T10:24:02.583Z,101129.09
2022-11-12T10:27:29.844Z,101136.16
2022-11-12T10:30:53.934Z,101136.84
2022-11-12T10:34:21.432Z,101146.84
2022-11-12T10:37:50.962Z,101139.47
2022-11-12T10:41:31.862Z,101145.78
2022-11-12T10:44:54.373Z,101144.94
2022-11-12T10:48:27.464Z,101135.31
2022-11-12T10:51:57.771Z,101132.13
2022-11-12T10:55:24.253Z,101126.53
2022-11-12T10:58:46.802Z,101132.84
2022-11-12T11:02:18.657Z,101127.91
2022-11-12T11:05:51.791Z,101120.31
2022-11-12T11:09:20.840Z,101133.09
2022-11-12T11:12:44.710Z,101145.53
2022-11-12T11:16:09.412Z,101138.91
2022-11-12T11:19:37.803Z,101139.16
2022-11-12T11:23:05.363Z,101140.09
2022-11-12T11:26:34.480Z,101141.28
2022-11-12T11:30:07.455Z,101131.50
2022-11-12T11:33:42.112Z,101137.25
2022-11-12T11:37:18.052Z,101126.19
2022-11-12T11:40:48.331Z,101123.34
2022-11-12T11:44:22.296Z,101126.19
2022-11-12T11:48:01.530Z,101121.09
2022-11-12T11:51:38.561Z,101115.13
2022-11-12T11:55:10.865Z,101116.31
2022-11-12T11:58:50.851Z,101111.66
2022-11-12T12:02:34.251Z,101118.31
2022-11-12T12:06:17.449Z,101117.97
2022-11-12T12:09:48.481Z,101111.53
2022-11-12T12:13:18.681Z,101112.84
2022-11-12T12:16:52.182Z,101109.88
2022-11-12T12:20:20.591Z,101110.72
2022-11-12T12:23:48.591Z,101118.09
2022-11-12T12:27:13.823Z,101105.59
2022-11-12T12:30:40.701Z,101109.13
2022-11-12T12:34:06.271Z,101105.09
2022-11-12T12:37:37.345Z,101100.81
2022-11-12T12:41:08.328Z,101104.72
2022-11-12T12:44:53.161Z,101101.97
2022-11-12T12:48:20.190Z,101106.97
2022-11-12T12:51:42.310Z,101114.38
2022-11-12T12:55:04.670Z,101103.31
2022-11-12T12:58:30.951Z,101102.94
2022-11-12T13:01:59.721Z,101107.94
2022-11-12T13:05:31.492Z,101101.16
2022-11-12T13:08:57.882Z,101100.31
2022-11-12T13:12:25.972Z,101100.47
2022-11-12T13:15:50.742Z,101096.72
2022-11-12T13:19:28.302Z,101097.34
2022-11-12T13:22:52.653Z,101086.03
2022-11-12T13:26:44.724Z,101090.91
2022-11-12T13:30:09.751Z,101087.25
2022-11-12T13:33:37.021Z,101090.91
2022-11-12T13:37:04.402Z,101087.47
2022-11-12T13:40:47.528Z,101085.56
2022-11-12T13:44:17.143Z,101089.94
2022-11-12T13:47:40.042Z,101086.50
2022-11-12T13:51:07.852Z,101091.22
2022-11-12T13:54:33.424Z,101092.38
2022-11-12T13:57:57.712Z,101090.41
2022-11-12T14:01:22.970Z,101096.28
2022-11-12T14:04:45.268Z,101099.19
2022-11-12T14:08:30.723Z,101101.06
2022-11-12T14:12:09.603Z,101075.03
2022-11-12T14:15:51.224Z,101096.91
2022-11-12T14:19:49.633Z,101089.00
2022-11-12T14:23:21.578Z,101087.13
2022-11-12T14:26:46.783Z,101083.13
2022-11-12T14:30:22.201Z,101071.66
2022-11-12T14:33:44.463Z,101063.22
2022-11-12T14:37:06.873Z,101070.53
2022-11-12T14:40:33.642Z,101086.25
2022-11-12T14:44:11.497Z,101093.53
2022-11-12T14:47:34.884Z,101097.13
2022-11-12T14:51:03.102Z,101089.56
2022-11-12T14:54:32.052Z,101093.88
2022-11-12T14:57:58.982Z,101090.50
2022-11-12T15:02:03.703Z,101091.66
2022-11-12T15:05:14.972Z,101098.31
2022-11-12T15:08:39.072Z,101097.53
2022-11-12T15:12:01.426Z,101102.88
2022-11-12T15:15:24.934Z,101103.88
2022-11-12T15:19:04.750Z,101105.75
2022-11-12T15:22:27.082Z,101108.47
2022-11-12T15:25:59.322Z,101102.84
2022-11-12T15:29:27.192Z,101115.28
2022-11-12T15:32:51.035Z,101109.09
2022-11-12T15:36:18.093Z,101111.97
2022-11-12T15:39:43.101Z,101125.78
2022-11-12T15:43:05.482Z,101125.19
2022-11-12T15:46:27.985Z,101124.84
2022-11-12T15:49:53.451Z,101135.69
2022-11-12T15:53:16.420Z,101128.13
2022-11-12T15:56:38.615Z,101123.28
2022-11-12T16:00:07.871Z,101124.38
2022-11-12T16:03:31.533Z,101120.22
2022-11-12T16:06:55.399Z,101116.28
2022-11-12T16:10:19.542Z,101124.00
2022-11-12T16:13:41.893Z,101127.31
2022-11-12T16:17:04.173Z,101129.13
2022-11-12T16:20:28.663Z,101128.88
2022-11-12T16:23:52.641Z,101136.97
2022-11-12T16:27:16.202Z,101140.78
2022-11-12T16:30:38.372Z,101147.66
2022-11-12T16:34:00.694Z,101140.19
2022-11-12T16:37:22.702Z,101149.22
2022-11-12T16:40:46.935Z,101146.75
2022-11-12T16:44:09.244Z,101146.06
2022-11-12T16:47:32.999Z,101141.41
2022-11-12T16:50:55.133Z,101130.22
2022-11-12T16:54:17.363Z,101130.91
2022-11-12T16:57:41.621Z,101126.63
2022-11-12T17:01:03.997Z,101120.69
2022-11-12T17:04:26.382Z,101133.75
2022-11-12T17:07:48.911Z,101135.56
2022-11-12T17:11:11.372Z,101138.91
2022-11-12T17:14:35.212Z,101135.47
2022-11-12T17:17:57.684Z,101134.50
2022-11-12T17:21:21.082Z,101147.72
2022-11-12T17:24:43.192Z,101143.78
2022-11-12T17:28:05.681Z,101135.66
2022-11-12T17:31:29.216Z,101130.31
2022-11-12T17:34:51.732Z,101131.00
2022-11-12T17:38:14.203Z,101136.25
2022-11-12T17:41:36.573Z,101133.41
2022-11-12T17:44:58.802Z,101143.88
2022-11-12T17:48:23.332Z,101144.44
2022-11-12T17:51:45.903Z,101144.34
2022-11-12T17:55:08.724Z,101152.59
2022-11-12T17:58:31.094Z,101150.31
2022-11-12T18:01:53.633Z,101147.09
2022-11-12T18:05:17.082Z,101150.44
2022-11-12T18:08:39.722Z,101146.59
2022-11-12T18:12:01.945Z,101153.59
2022-11-12T18:15:23.952Z,101153.09
2022-11-12T18:18:46.592Z,101156.44
2022-11-12T18:22:12.883Z,101149.03
2022-11-12T18:25:38.410Z,101149.78
2022-11-12T18:29:01.852Z,101157.84
2022-11-12T18:32:24.114Z,101154.81
2022-11-12T18:35:46.572Z,101147.91
2022-11-12T18:39:10.124Z,101151.34
2022-11-12T18:42:32.463Z,101150.88
2022-11-12T18:45:59.347Z,101149.59
2022-11-12T18:49:21.721Z,101149.28
2022-11-12T18:52:44.125Z,101147.38
2022-11-12T18:56:10.264Z,101153.69
2022-11-12T18:59:32.872Z,101151.66
2022-11-12T19:02:54.873Z,101152.13
2022-11-12T19:06:17.413Z,101161.66
2022-11-12T19:09:39.872Z,101157.25
2022-11-12T19:13:05.210Z,101161.06
2022-11-12T19:16:27.502Z,101159.97
2022-11-12T19:19:49.875Z,101161.03
2022-11-12T19:23:12.537Z,101168.41
2022-11-12T19:26:34.983Z,101159.75
2022-11-12T19:30:02.833Z,101164.06
2022-11-12T19:33:25.743Z,101163.31
2022-11-12T19:36:48.442Z,101166.47
2022-11-12T19:40:16.882Z,101173.81
2022-11-12T19:43:40.485Z,101168.03
2022-11-12T19:47:04.146Z,101171.59
2022-11-12T19:50:26.482Z,101183.50
2022-11-12T19:53:49.464Z,101181.34
2022-11-12T19:57:11.733Z,101196.75
2022-11-12T20:00:33.712Z,101198.16
2022-11-12T20:03:57.799Z,101201.38
2022-11-12T20:07:20.077Z,101195.19
2022-11-12T20:10:42.084Z,101202.41
2022-11-12T20:14:04.523Z,101213.22
2022-11-12T20:17:26.683Z,101206.25
2022-11-12T20:20:51.856Z,101205.25
2022-11-12T20:24:14.244Z,101207.47
2022-11-12T20:27:36.460Z,101202.38
2022-11-12T20:31:03.593Z,101204.53
2022-11-12T20:34:27.002Z,101198.13
2022-11-12T20:37:50.733Z,101201.38
2022-11-12T20:41:18.093Z,101202.13
2022-11-12T20:44:41.730Z,101207.34
2022-11-12T20:48:04.882Z,101206.41
2022-11-12T20:51:29.831Z,101200.44
2022-11-12T20:54:53.362Z,101200.81
2022-11-12T20:58:15.782Z,101202.75
2022-11-12T21:01:38.651Z,101208.22
2022-11-12T21:05:00.841Z,101204.38
2022-11-12T21:08:23.143Z,101197.47
2022-11-12T21:11:47.132Z,101205.84
2022-11-12T21:15:11.142Z,101213.75
2022-11-12T21:18:35.051Z,101209.97
2022-11-12T21:21:57.470Z,101210.63
2022-11-12T21:25:20.164Z,101214.09
2022-11-12T21:28:45.748Z,101213.28
2022-11-12T21:32:08.209Z,101215.31
2022-11-12T21:35:30.653Z,101216.94
2022-11-12T21:38:52.754Z,101221.00
2022-11-12T21:42:16.451Z,101212.91
2022-11-12T21:45:46.463Z,101210.53
2022-11-12T21:49:08.810Z,101205.16
2022-11-12T21:52:30.903Z,101208.16
2022-11-12T21:55:53.043Z,101208.66
2022-11-12T21:59:15.650Z,101210.47
2022-11-12T22:02:39.243Z,101207.31
2022-11-12T22:06:01.574Z,101214.88
2022-11-12T22:09:23.632Z,101217.88
2022-11-12T22:13:12.130Z,101217.34
2022-11-12T22:16:30.332Z,101212.34
2022-11-12T22:19:57.003Z,101210.66
2022-11-12T22:23:19.681Z,101209.75
2022-11-12T22:26:42.012Z,101197.91
2022-11-12T22:30:04.164Z,101201.09
2022-11-12T22:33:26.244Z,101214.69
2022-11-12T22:36:49.793Z,101207.53
2022-11-12T22:40:13.864Z,101200.91
2022-11-12T22:43:38.192Z,101203.78
2022-11-12T22:47:00.531Z,101202.25
2022-11-12T22:50:22.966Z,101200.72
2022-11-12T22:53:46.332Z,101206.22
2022-11-12T22:57:08.593Z,101207.69
2022-11-12T23:00:32.131Z,101206.00
2022-11-12T23:03:57.034Z,101201.81
2022-11-12T23:07:19.341Z,101201.91
2022-11-12T23:10:45.752Z,101202.06
2022-11-12T23:14:08.238Z,101200.44
2022-11-12T23:17:30.640Z,101198.38
2022-11-12T23:20:53.166Z,101201.63
2022-11-12T23:24:15.201Z,101203.75
2022-11-12T23:27:39.244Z,101198.13
2022-11-12T23:31:02.052Z,101201.13
2022-11-12T23:34:24.589Z,101196.91
2022-11-12T23:37:46.732Z,101194.50
2022-11-12T23:41:08.893Z,101200.47
2022-11-12T23:44:32.694Z,101203.81
2022-11-12T23:47:56.193Z,101200.94
2022-11-12T23:51:20.559Z,101202.47
2022-11-12T23:54:42.953Z,101196.84
2022-11-12T23:58:05.371Z,101201.28
